createdAt,value
2023-04-27T00:00:28.696Z,28.84
2023-04-27T00:01:28.694Z,28.90
2023-04-27T00:02:28.902Z,28.93
2023-04-27T00:03:28.868Z,28.87
2023-04-27T00:04:28.917Z,28.88
2023-04-27T00:05:28.814Z,28.84
2023-04-27T00:06:28.746Z,28.87
2023-04-27T00:07:28.808Z,28.87
2023-04-27T00:08:28.797Z,28.85
2023-04-27T00:09:28.818Z,28.87
2023-04-27T00:10:28.870Z,28.84
2023-04-27T00:11:28.902Z,28.91
2023-04-27T00:12:28.921Z,28.85
2023-04-27T00:13:28.938Z,28.88
2023-04-27T00:14:28.956Z,28.89
2023-04-27T00:15:28.953Z,28.90
2023-04-27T00:16:29.034Z,28.85
2023-04-27T00:17:29.009Z,28.88
2023-04-27T00:18:29.029Z,28.87
2023-04-27T00:19:29.022Z,28.88
2023-04-27T00:20:29.035Z,28.84
2023-04-27T00:21:29.025Z,28.82
2023-04-27T00:22:29.032Z,28.88
2023-04-27T00:23:29.042Z,28.84
2023-04-27T00:24:29.080Z,28.88
2023-04-27T00:25:29.054Z,28.88
2023-04-27T00:26:29.095Z,28.88
2023-04-27T00:27:29.113Z,28.84
2023-04-27T00:28:29.158Z,28.82
2023-04-27T00:29:29.189Z,28.90
2023-04-27T00:30:29.153Z,28.85
2023-04-27T00:31:29.242Z,28.87
2023-04-27T00:32:29.285Z,28.82
2023-04-27T00:33:29.217Z,28.84
2023-04-27T00:34:29.259Z,28.90
2023-04-27T00:35:29.267Z,28.88
2023-04-27T00:36:29.259Z,28.85
2023-04-27T00:37:29.331Z,28.84
2023-04-27T00:38:29.304Z,28.87
2023-04-27T00:39:29.291Z,28.88
2023-04-27T00:40:29.313Z,28.89
2023-04-27T00:41:29.366Z,28.84
2023-04-27T00:42:29.398Z,28.82
2023-04-27T00:43:29.379Z,28.88
2023-04-27T00:44:29.446Z,28.87
2023-04-27T00:45:29.426Z,28.85
2023-04-27T00:46:29.540Z,28.84
2023-04-27T00:47:29.515Z,28.83
2023-04-27T00:48:29.496Z,28.82
2023-04-27T00:49:29.466Z,28.85
2023-04-27T00:50:29.630Z,28.85
2023-04-27T00:51:29.492Z,28.84
2023-04-27T00:52:29.502Z,28.85
2023-04-27T00:53:29.501Z,28.88
2023-04-27T00:54:29.553Z,28.82
2023-04-27T00:55:29.554Z,28.84
2023-04-27T00:56:29.641Z,28.82
2023-04-27T00:57:29.601Z,28.81
2023-04-27T00:58:29.630Z,28.82
2023-04-27T00:59:29.623Z,28.82
2023-04-27T01:00:29.636Z,28.84
2023-04-27T01:01:29.709Z,28.79
2023-04-27T01:02:29.789Z,28.87
2023-04-27T01:03:29.793Z,28.79
2023-04-27T01:04:29.781Z,28.81
2023-04-27T01:05:31.929Z,28.85
2023-04-27T01:06:29.739Z,28.82
2023-04-27T01:07:29.709Z,28.83
2023-04-27T01:08:29.697Z,28.88
2023-04-27T01:09:29.656Z,28.82
2023-04-27T01:10:29.668Z,28.86
2023-04-27T01:11:29.669Z,28.88
2023-04-27T01:12:29.643Z,28.85
2023-04-27T01:13:29.619Z,28.83
2023-04-27T01:14:29.641Z,28.85
2023-04-27T01:15:29.628Z,28.85
2023-04-27T01:16:29.661Z,28.82
2023-04-27T01:17:29.638Z,28.84
2023-04-27T01:18:29.619Z,28.84
2023-04-27T01:19:29.600Z,28.83
2023-04-27T01:20:29.583Z,28.82
2023-04-27T01:21:29.592Z,28.83
2023-04-27T01:22:29.601Z,28.81
2023-04-27T01:23:29.587Z,28.78
2023-04-27T01:24:29.564Z,28.78
2023-04-27T01:25:29.569Z,28.79
2023-04-27T01:26:29.518Z,28.83
2023-04-27T01:27:29.548Z,28.78
2023-04-27T01:28:29.549Z,28.83
2023-04-27T01:29:29.559Z,28.78
2023-04-27T01:30:29.514Z,28.82
2023-04-27T01:31:29.517Z,28.82
2023-04-27T01:32:29.506Z,28.77
2023-04-27T01:33:29.491Z,28.81
2023-04-27T01:34:29.486Z,28.82
2023-04-27T01:35:29.508Z,28.79
2023-04-27T01:36:29.452Z,28.83
2023-04-27T01:37:29.476Z,28.81
2023-04-27T01:38:29.456Z,28.83
2023-04-27T01:39:29.451Z,28.83
2023-04-27T01:40:29.494Z,28.82
2023-04-27T01:41:29.483Z,28.83
2023-04-27T01:42:29.461Z,28.80
2023-04-27T01:43:29.429Z,28.81
2023-04-27T01:44:29.437Z,28.79
2023-04-27T01:45:29.396Z,28.81
2023-04-27T01:46:29.447Z,28.80
2023-04-27T01:47:29.439Z,28.79
2023-04-27T01:48:29.419Z,28.79
2023-04-27T01:49:29.369Z,28.81
2023-04-27T01:50:29.436Z,28.82
2023-04-27T01:51:29.379Z,28.78
2023-04-27T01:52:29.386Z,28.82
2023-04-27T01:53:29.370Z,28.81
2023-04-27T01:54:29.381Z,28.83
2023-04-27T01:55:29.362Z,28.79
2023-04-27T01:56:29.352Z,28.78
2023-04-27T01:57:29.381Z,28.81
2023-04-27T01:58:29.329Z,28.79
2023-04-27T01:59:29.319Z,28.80
2023-04-27T02:00:29.324Z,28.79
2023-04-27T02:01:29.337Z,28.80
2023-04-27T02:02:29.404Z,28.79
2023-04-27T02:03:29.446Z,28.79
2023-04-27T02:04:29.490Z,28.79
2023-04-27T02:05:29.269Z,28.81
2023-04-27T02:06:29.302Z,28.79
2023-04-27T02:07:29.295Z,28.80
2023-04-27T02:08:29.251Z,28.79
2023-04-27T02:09:29.264Z,28.75
2023-04-27T02:10:29.254Z,28.76
2023-04-27T02:11:29.251Z,28.82
2023-04-27T02:12:29.221Z,28.79
2023-04-27T02:13:29.217Z,28.80
2023-04-27T02:14:29.225Z,28.82
2023-04-27T02:15:29.225Z,28.80
2023-04-27T02:16:29.204Z,28.80
2023-04-27T02:17:29.216Z,28.82
2023-04-27T02:18:29.198Z,28.79
2023-04-27T02:19:29.165Z,28.73
2023-04-27T02:20:29.165Z,28.79
2023-04-27T02:21:29.132Z,28.76
2023-04-27T02:22:29.141Z,28.78
2023-04-27T02:23:29.146Z,28.70
2023-04-27T02:24:29.132Z,28.77
2023-04-27T02:25:29.165Z,28.81
2023-04-27T02:26:29.134Z,28.78
2023-04-27T02:27:29.132Z,28.79
2023-04-27T02:28:29.115Z,28.75
2023-04-27T02:29:29.112Z,28.80
2023-04-27T02:30:29.063Z,28.77
2023-04-27T02:31:29.115Z,28.80
2023-04-27T02:32:29.114Z,28.80
2023-04-27T02:33:29.083Z,28.79
2023-04-27T02:34:29.170Z,28.79
2023-04-27T02:35:29.063Z,28.77
2023-04-27T02:36:29.079Z,28.77
2023-04-27T02:37:29.049Z,28.80
2023-04-27T02:38:29.018Z,28.73
2023-04-27T02:39:29.026Z,28.77
2023-04-27T02:40:29.054Z,28.79
2023-04-27T02:41:29.058Z,28.74
2023-04-27T02:42:29.067Z,28.74
2023-04-27T02:43:29.063Z,28.74
2023-04-27T02:44:29.086Z,28.74
2023-04-27T02:45:29.085Z,28.72
2023-04-27T02:46:29.107Z,28.73
2023-04-27T02:47:29.198Z,28.73
2023-04-27T02:48:29.145Z,28.79
2023-04-27T02:49:29.171Z,28.80
2023-04-27T02:50:29.186Z,28.74
2023-04-27T02:51:29.191Z,28.76
2023-04-27T02:52:29.196Z,28.77
2023-04-27T02:53:29.229Z,28.74
2023-04-27T02:54:29.223Z,28.79
2023-04-27T02:55:29.236Z,28.85
2023-04-27T02:56:29.252Z,28.73
2023-04-27T02:57:29.269Z,28.74
2023-04-27T02:58:29.284Z,28.73
2023-04-27T02:59:29.313Z,28.77
2023-04-27T03:00:29.269Z,28.77
2023-04-27T03:01:29.317Z,28.76
2023-04-27T03:02:29.399Z,28.74
2023-04-27T03:03:29.451Z,28.74
2023-04-27T03:04:29.369Z,28.73
2023-04-27T03:05:29.401Z,28.74
2023-04-27T03:06:29.384Z,28.73
2023-04-27T03:07:29.417Z,28.70
2023-04-27T03:08:29.400Z,28.80
2023-04-27T03:09:29.417Z,28.74
2023-04-27T03:10:29.479Z,28.76
2023-04-27T03:11:29.477Z,28.76
2023-04-27T03:12:29.525Z,28.77
2023-04-27T03:13:29.507Z,28.70
2023-04-27T03:14:29.539Z,28.72
2023-04-27T03:15:29.556Z,28.76
2023-04-27T03:16:29.621Z,28.76
2023-04-27T03:17:29.621Z,28.73
2023-04-27T03:18:29.615Z,28.72
2023-04-27T03:19:29.625Z,28.73
2023-04-27T03:20:29.632Z,28.77
2023-04-27T03:21:29.640Z,28.74
2023-04-27T03:22:29.642Z,28.72
2023-04-27T03:23:29.690Z,28.72
2023-04-27T03:24:29.709Z,28.70
2023-04-27T03:25:29.701Z,28.68
2023-04-27T03:26:29.730Z,28.74
2023-04-27T03:27:29.740Z,28.77
2023-04-27T03:28:29.741Z,28.73
2023-04-27T03:29:29.780Z,28.72
2023-04-27T03:30:29.835Z,28.73
2023-04-27T03:31:29.798Z,28.74
2023-04-27T03:32:29.875Z,28.76
2023-04-27T03:33:29.862Z,28.76
2023-04-27T03:34:29.856Z,28.70
2023-04-27T03:35:29.874Z,28.70
2023-04-27T03:36:29.879Z,28.72
2023-04-27T03:37:29.900Z,28.70
2023-04-27T03:38:29.878Z,28.71
2023-04-27T03:39:29.927Z,28.68
2023-04-27T03:40:29.937Z,28.71
2023-04-27T03:41:29.947Z,28.68
2023-04-27T03:42:29.967Z,28.70
2023-04-27T03:43:29.951Z,28.74
2023-04-27T03:44:29.967Z,28.72
2023-04-27T03:45:29.980Z,28.68
2023-04-27T03:46:30.102Z,28.70
2023-04-27T03:47:30.073Z,28.72
2023-04-27T03:48:30.027Z,28.70
2023-04-27T03:49:30.048Z,28.74
2023-04-27T03:50:30.407Z,28.72
2023-04-27T03:51:30.086Z,28.71
2023-04-27T03:52:30.131Z,28.73
2023-04-27T03:53:30.105Z,28.68
2023-04-27T03:54:30.161Z,28.68
2023-04-27T03:55:30.212Z,28.68
2023-04-27T03:56:30.196Z,28.74
2023-04-27T03:57:30.215Z,28.71
2023-04-27T03:58:30.267Z,28.72
2023-04-27T03:59:30.252Z,28.67
2023-04-27T04:00:30.270Z,28.70
2023-04-27T04:01:30.253Z,28.73
2023-04-27T04:02:30.379Z,28.71
2023-04-27T04:03:30.412Z,28.70
2023-04-27T04:04:30.493Z,28.66
2023-04-27T04:05:30.306Z,28.68
2023-04-27T04:06:30.322Z,28.70
2023-04-27T04:07:30.349Z,28.68
2023-04-27T04:08:30.303Z,28.70
2023-04-27T04:09:30.336Z,28.67
2023-04-27T04:10:30.336Z,28.70
2023-04-27T04:11:30.344Z,28.68
2023-04-27T04:12:30.347Z,28.64
2023-04-27T04:13:30.372Z,28.67
2023-04-27T04:14:30.386Z,28.71
2023-04-27T04:15:30.387Z,28.70
2023-04-27T04:16:30.417Z,28.71
2023-04-27T04:17:30.424Z,28.71
2023-04-27T04:18:30.406Z,28.74
2023-04-27T04:19:30.426Z,28.68
2023-04-27T04:20:30.413Z,28.68
2023-04-27T04:21:30.413Z,28.71
2023-04-27T04:22:30.414Z,28.70
2023-04-27T04:23:30.428Z,28.70
2023-04-27T04:24:30.429Z,28.68
2023-04-27T04:25:30.450Z,28.71
2023-04-27T04:26:30.461Z,28.74
2023-04-27T04:27:30.464Z,28.71
2023-04-27T04:28:30.452Z,28.71
2023-04-27T04:29:30.466Z,28.73
2023-04-27T04:30:30.497Z,28.72
2023-04-27T04:31:30.532Z,28.64
2023-04-27T04:32:30.532Z,28.68
2023-04-27T04:33:30.486Z,28.72
2023-04-27T04:34:30.501Z,28.71
2023-04-27T04:35:30.517Z,28.69
2023-04-27T04:36:30.496Z,28.68
2023-04-27T04:37:30.514Z,28.68
2023-04-27T04:38:30.512Z,28.67
2023-04-27T04:39:30.532Z,28.65
2023-04-27T04:40:30.518Z,28.67
2023-04-27T04:41:30.506Z,28.72
2023-04-27T04:42:30.559Z,28.67
2023-04-27T04:43:30.584Z,28.64
2023-04-27T04:44:30.564Z,28.74
2023-04-27T04:45:30.617Z,28.70
2023-04-27T04:46:30.662Z,28.71
2023-04-27T04:47:30.710Z,28.72
2023-04-27T04:48:30.609Z,28.74
2023-04-27T04:49:30.641Z,28.90
2023-04-27T04:50:30.639Z,29.03
2023-04-27T04:51:30.643Z,29.07
2023-04-27T04:52:30.632Z,29.14
2023-04-27T04:53:30.663Z,29.17
2023-04-27T04:54:30.691Z,29.13
2023-04-27T04:55:30.628Z,29.06
2023-04-27T04:56:30.624Z,29.03
2023-04-27T04:57:30.605Z,29.10
2023-04-27T04:58:30.642Z,29.10
2023-04-27T04:59:32.017Z,29.13
2023-04-27T05:00:30.590Z,29.13
2023-04-27T05:01:30.608Z,29.10
2023-04-27T05:02:30.730Z,29.14
2023-04-27T05:03:30.683Z,29.16
2023-04-27T05:04:30.722Z,29.20
2023-04-27T05:05:30.613Z,29.23
2023-04-27T05:06:30.603Z,29.22
2023-04-27T05:07:30.627Z,29.19
2023-04-27T05:08:30.620Z,29.24
2023-04-27T05:09:30.578Z,29.24
2023-04-27T05:10:30.608Z,29.32
2023-04-27T05:11:30.608Z,29.26
2023-04-27T05:12:30.584Z,29.26
2023-04-27T05:13:30.583Z,29.27
2023-04-27T05:14:30.610Z,29.24
2023-04-27T05:15:30.580Z,29.27
2023-04-27T05:16:30.649Z,29.28
2023-04-27T05:17:30.667Z,29.33
2023-04-27T05:18:30.638Z,29.33
2023-04-27T05:19:30.675Z,29.32
2023-04-27T05:20:30.626Z,29.44
2023-04-27T05:21:30.679Z,29.43
2023-04-27T05:22:30.697Z,29.40
2023-04-27T05:23:30.688Z,29.46
2023-04-27T05:24:30.714Z,29.43
2023-04-27T05:25:30.695Z,29.40
2023-04-27T05:26:30.730Z,29.43
2023-04-27T05:27:30.751Z,29.42
2023-04-27T05:28:30.733Z,29.48
2023-04-27T05:29:30.746Z,29.48
2023-04-27T05:30:30.769Z,29.50
2023-04-27T05:31:30.784Z,29.49
2023-04-27T05:32:30.806Z,29.50
2023-04-27T05:33:30.796Z,29.58
2023-04-27T05:34:30.799Z,29.56
2023-04-27T05:35:30.813Z,29.59
2023-04-27T05:36:30.794Z,29.62
2023-04-27T05:37:30.895Z,29.66
2023-04-27T05:38:30.827Z,29.77
2023-04-27T05:39:30.841Z,29.73
2023-04-27T05:40:30.800Z,29.75
2023-04-27T05:41:30.788Z,29.94
2023-04-27T05:42:31.034Z,30.11
2023-04-27T05:43:30.800Z,30.36
2023-04-27T05:44:30.788Z,30.64
2023-04-27T05:45:30.842Z,31.54
2023-04-27T05:46:30.807Z,30.58
2023-04-27T05:47:30.850Z,30.53
2023-04-27T05:48:30.756Z,31.14
2023-04-27T05:49:30.805Z,30.90
2023-04-27T05:50:30.815Z,31.16
2023-04-27T05:51:30.856Z,31.72
2023-04-27T05:52:31.223Z,32.43
2023-04-27T05:53:30.897Z,32.35
2023-04-27T05:54:30.943Z,32.71
2023-04-27T05:55:30.972Z,33.27
2023-04-27T05:56:30.992Z,33.01
2023-04-27T05:57:31.047Z,32.93
2023-04-27T05:58:31.062Z,33.09
2023-04-27T05:59:31.095Z,32.71
2023-04-27T06:00:31.113Z,32.77
2023-04-27T06:01:31.195Z,32.13
2023-04-27T06:02:31.290Z,32.30
2023-04-27T06:03:31.330Z,32.20
2023-04-27T06:04:31.261Z,32.20
2023-04-27T06:05:31.404Z,32.26
2023-04-27T06:06:31.230Z,32.24
2023-04-27T06:07:31.302Z,32.11
2023-04-27T06:08:31.275Z,32.13
2023-04-27T06:09:31.305Z,32.15
2023-04-27T06:10:31.401Z,32.20
2023-04-27T06:11:31.333Z,32.18
2023-04-27T06:12:31.308Z,32.15
2023-04-27T06:13:31.333Z,32.09
2023-04-27T06:14:31.320Z,32.04
2023-04-27T06:15:31.364Z,32.04
2023-04-27T06:16:31.524Z,32.14
2023-04-27T06:17:31.419Z,32.17
2023-04-27T06:18:31.391Z,32.09
2023-04-27T06:19:31.468Z,32.24
2023-04-27T06:20:31.391Z,32.50
2023-04-27T06:21:31.435Z,32.30
2023-04-27T06:22:31.440Z,32.29
2023-04-27T06:23:31.458Z,32.09
2023-04-27T06:24:31.502Z,32.15
2023-04-27T06:25:31.496Z,32.09
2023-04-27T06:26:31.523Z,32.08
2023-04-27T06:27:31.501Z,32.25
2023-04-27T06:28:31.552Z,32.47
2023-04-27T06:29:31.547Z,32.32
2023-04-27T06:30:31.551Z,32.03
2023-04-27T06:31:31.595Z,32.09
2023-04-27T06:32:31.573Z,31.93
2023-04-27T06:33:31.544Z,32.02
2023-04-27T06:34:31.540Z,32.36
2023-04-27T06:35:31.563Z,32.38
2023-04-27T06:36:31.532Z,32.32
2023-04-27T06:37:31.561Z,32.24
2023-04-27T06:38:31.539Z,32.25
2023-04-27T06:39:31.566Z,32.09
2023-04-27T06:40:31.557Z,32.18
2023-04-27T06:41:31.573Z,32.28
2023-04-27T06:42:31.645Z,32.47
2023-04-27T06:43:31.619Z,32.71
2023-04-27T06:44:31.628Z,32.79
2023-04-27T06:45:31.672Z,32.29
2023-04-27T06:46:31.673Z,31.92
2023-04-27T06:49:25.349Z,33.32
2023-04-27T06:50:25.156Z,33.13
2023-04-27T06:51:25.151Z,32.95
2023-04-27T06:52:25.121Z,33.17
2023-04-27T06:53:25.136Z,33.13
2023-04-27T06:54:25.110Z,33.50
2023-04-27T06:55:25.325Z,33.72
2023-04-27T06:56:25.075Z,33.96
2023-04-27T06:57:25.077Z,34.02
2023-04-27T06:58:25.232Z,33.96
2023-04-27T06:59:25.045Z,34.04
2023-04-27T07:00:25.084Z,33.98
2023-04-27T07:01:25.056Z,33.87
2023-04-27T07:02:25.682Z,33.93
2023-04-27T07:03:25.217Z,34.06
2023-04-27T07:04:25.090Z,34.20
2023-04-27T07:05:25.026Z,34.44
2023-04-27T07:06:25.032Z,34.40
2023-04-27T07:07:25.018Z,34.44
2023-04-27T07:08:25.048Z,34.41
2023-04-27T07:09:27.746Z,34.55
2023-04-27T07:10:24.995Z,34.44
2023-04-27T07:11:24.983Z,34.63
2023-04-27T07:12:24.980Z,34.66
2023-04-27T07:13:25.163Z,34.65
2023-04-27T07:14:24.964Z,34.65
2023-04-27T07:15:24.941Z,34.64
2023-04-27T07:16:24.983Z,34.75
2023-04-27T07:17:24.966Z,34.89
2023-04-27T07:18:24.931Z,34.72
2023-04-27T07:19:24.925Z,34.90
2023-04-27T07:20:24.935Z,35.01
2023-04-27T07:21:24.915Z,35.04
2023-04-27T07:22:24.887Z,35.01
2023-04-27T07:23:24.901Z,35.07
2023-04-27T07:24:24.897Z,35.17
2023-04-27T07:25:24.895Z,35.09
2023-04-27T07:26:24.858Z,35.26
2023-04-27T07:27:24.850Z,35.50
2023-04-27T07:28:24.904Z,35.54
2023-04-27T07:29:27.412Z,35.65
2023-04-27T07:30:25.154Z,35.71
2023-04-27T07:31:24.907Z,35.80
2023-04-27T07:32:24.884Z,35.86
2023-04-27T07:33:24.872Z,35.95
2023-04-27T07:34:24.816Z,35.99
2023-04-27T07:35:24.786Z,36.10
2023-04-27T07:36:24.783Z,36.21
2023-04-27T07:37:24.778Z,36.32
2023-04-27T07:38:24.779Z,36.34
2023-04-27T07:39:24.804Z,36.41
2023-04-27T07:40:24.881Z,36.48
2023-04-27T07:41:24.759Z,36.58
2023-04-27T07:42:24.760Z,36.78
2023-04-27T07:43:24.769Z,36.50
2023-04-27T07:44:24.744Z,36.35
2023-04-27T07:45:24.808Z,36.21
2023-04-27T07:46:24.803Z,36.01
2023-04-27T07:47:24.725Z,35.89
2023-04-27T07:48:24.899Z,36.34
2023-04-27T07:49:24.695Z,36.12
2023-04-27T07:50:24.798Z,35.95
2023-04-27T07:51:24.699Z,35.82
2023-04-27T07:52:24.704Z,35.69
2023-04-27T07:53:24.674Z,35.73
2023-04-27T07:54:24.682Z,35.65
2023-04-27T07:55:24.686Z,35.57
2023-04-27T07:56:24.687Z,35.59
2023-04-27T07:57:24.679Z,35.63
2023-04-27T07:58:24.648Z,35.59
2023-04-27T07:59:24.628Z,35.61
2023-04-27T08:00:24.711Z,35.50
2023-04-27T08:01:24.617Z,35.56
2023-04-27T08:02:24.765Z,35.49
2023-04-27T08:03:24.998Z,35.48
2023-04-27T08:04:24.920Z,35.51
2023-04-27T08:05:24.979Z,35.47
2023-04-27T08:06:24.865Z,35.53
2023-04-27T08:07:24.979Z,35.53
2023-04-27T08:08:24.833Z,35.60
2023-04-27T08:09:24.578Z,35.58
2023-04-27T08:10:24.637Z,35.61
2023-04-27T08:11:24.563Z,35.54
2023-04-27T08:12:24.546Z,35.59
2023-04-27T08:13:25.558Z,35.58
2023-04-27T08:14:24.516Z,35.65
2023-04-27T08:15:24.532Z,35.61
2023-04-27T08:16:24.571Z,35.57
2023-04-27T08:17:24.529Z,35.63
2023-04-27T08:18:24.511Z,35.56
2023-04-27T08:19:24.482Z,35.59
2023-04-27T08:20:24.559Z,35.59
2023-04-27T08:21:24.512Z,35.67
2023-04-27T08:22:24.480Z,35.62
2023-04-27T08:23:24.506Z,35.67
2023-04-27T08:24:24.501Z,35.65
2023-04-27T08:25:24.462Z,35.64
2023-04-27T08:26:26.309Z,35.65
2023-04-27T08:27:24.476Z,35.62
2023-04-27T08:28:24.486Z,35.66
2023-04-27T08:29:28.516Z,35.68
2023-04-27T08:30:24.429Z,36.25
2023-04-27T08:31:24.446Z,37.03
2023-04-27T08:32:24.413Z,36.70
2023-04-27T08:33:24.456Z,36.72
2023-04-27T08:34:24.449Z,37.08
2023-04-27T08:35:24.418Z,36.74
2023-04-27T08:36:24.424Z,36.69
2023-04-27T08:37:24.401Z,36.85
2023-04-27T08:38:25.715Z,36.92
2023-04-27T08:39:24.385Z,36.92
2023-04-27T08:40:24.367Z,33.96
2023-04-27T08:41:24.461Z,35.46
2023-04-27T08:42:24.351Z,33.54
2023-04-27T08:43:24.356Z,31.72
2023-04-27T08:44:24.354Z,31.83
2023-04-27T08:45:24.337Z,32.15
2023-04-27T08:46:24.365Z,32.74
2023-04-27T08:47:35.003Z,32.48
2023-04-27T08:48:25.343Z,33.44
2023-04-27T08:49:24.390Z,32.41
2023-04-27T08:50:24.435Z,33.30
2023-04-27T08:51:24.310Z,32.54
2023-04-27T08:52:24.317Z,32.98
2023-04-27T08:53:24.278Z,33.65
2023-04-27T08:54:24.290Z,32.81
2023-04-27T08:55:24.318Z,33.39
2023-04-27T08:56:24.281Z,34.59
2023-04-27T08:57:24.283Z,34.94
2023-04-27T08:58:24.288Z,35.28
2023-04-27T08:59:24.239Z,35.67
2023-04-27T09:00:24.254Z,35.61
2023-04-27T09:01:24.314Z,35.62
2023-04-27T09:02:24.282Z,35.78
2023-04-27T09:03:24.470Z,35.91
2023-04-27T09:04:24.588Z,36.08
2023-04-27T09:05:24.441Z,36.20
2023-04-27T09:06:24.421Z,36.46
2023-04-27T09:07:25.290Z,36.72
2023-04-27T09:08:24.369Z,36.68
2023-04-27T09:09:24.461Z,36.83
2023-04-27T09:10:24.471Z,36.90
2023-04-27T09:11:24.512Z,37.07
2023-04-27T09:12:24.538Z,37.14
2023-04-27T09:13:24.611Z,37.20
2023-04-27T09:14:24.617Z,37.40
2023-04-27T09:15:24.666Z,37.53
2023-04-27T09:16:24.719Z,37.48
2023-04-27T09:17:24.748Z,37.52
2023-04-27T09:18:24.735Z,37.49
2023-04-27T09:19:24.783Z,37.85
2023-04-27T09:20:24.780Z,37.92
2023-04-27T09:21:24.801Z,37.96
2023-04-27T09:22:24.826Z,38.23
2023-04-27T09:23:24.824Z,38.17
2023-04-27T09:24:24.846Z,38.45
2023-04-27T09:25:24.840Z,38.72
2023-04-27T09:26:24.809Z,38.73
2023-04-27T09:27:24.825Z,38.76
2023-04-27T09:28:24.831Z,39.00
2023-04-27T09:29:24.854Z,39.11
2023-04-27T09:30:24.840Z,39.27
2023-04-27T09:31:24.975Z,39.27
2023-04-27T09:32:24.991Z,39.41
2023-04-27T09:33:25.078Z,39.59
2023-04-27T09:34:25.089Z,39.38
2023-04-27T09:35:25.113Z,39.26
2023-04-27T09:36:25.205Z,39.60
2023-04-27T09:37:25.272Z,39.74
2023-04-27T09:38:25.338Z,39.85
2023-04-27T09:39:25.424Z,40.12
2023-04-27T09:40:25.422Z,40.25
2023-04-27T09:41:25.512Z,40.16
2023-04-27T09:42:25.540Z,40.50
2023-04-27T09:43:25.581Z,40.22
2023-04-27T09:44:25.907Z,40.12
2023-04-27T09:45:25.951Z,39.85
2023-04-27T09:46:25.841Z,38.63
2023-04-27T09:47:25.788Z,37.07
2023-04-27T09:48:25.747Z,38.19
2023-04-27T09:49:25.843Z,38.25
2023-04-27T09:50:25.760Z,38.08
2023-04-27T09:51:25.777Z,37.83
2023-04-27T09:52:25.786Z,37.70
2023-04-27T09:53:25.803Z,37.57
2023-04-27T09:54:25.817Z,37.44
2023-04-27T09:55:25.801Z,37.19
2023-04-27T09:56:25.881Z,37.06
2023-04-27T09:57:25.808Z,36.86
2023-04-27T09:58:25.820Z,36.76
2023-04-27T09:59:25.809Z,36.59
2023-04-27T10:00:25.830Z,36.50
2023-04-27T10:01:25.885Z,36.06
2023-04-27T10:02:26.103Z,36.30
2023-04-27T10:03:25.897Z,36.14
2023-04-27T10:04:26.109Z,36.00
2023-04-27T10:05:25.976Z,35.73
2023-04-27T10:06:25.898Z,35.70
2023-04-27T10:07:25.909Z,35.66
2023-04-27T10:08:25.910Z,35.56
2023-04-27T10:09:25.927Z,35.34
2023-04-27T10:10:25.931Z,35.23
2023-04-27T10:11:25.900Z,35.17
2023-04-27T10:12:25.925Z,35.07
2023-04-27T10:13:25.903Z,35.16
2023-04-27T10:14:25.895Z,35.09
2023-04-27T10:15:25.887Z,35.08
2023-04-27T10:16:25.943Z,35.01
2023-04-27T10:17:26.034Z,35.09
2023-04-27T10:18:26.019Z,35.13
2023-04-27T10:19:26.074Z,35.16
2023-04-27T10:20:26.086Z,35.20
2023-04-27T10:21:26.125Z,35.24
2023-04-27T10:22:26.198Z,35.29
2023-04-27T10:23:26.271Z,35.41
2023-04-27T10:24:26.374Z,35.37
2023-04-27T10:25:26.376Z,35.41
2023-04-27T10:26:26.491Z,35.42
2023-04-27T10:27:26.506Z,35.47
2023-04-27T10:28:26.553Z,35.40
2023-04-27T10:29:26.651Z,35.33
2023-04-27T10:30:26.682Z,35.42
2023-04-27T10:31:26.822Z,35.43
2023-04-27T10:32:26.797Z,35.51
2023-04-27T10:33:26.830Z,35.45
2023-04-27T10:34:26.896Z,35.55
2023-04-27T10:35:26.929Z,35.58
2023-04-27T10:36:26.970Z,35.68
2023-04-27T10:37:26.992Z,35.53
2023-04-27T10:38:27.053Z,35.41
2023-04-27T10:39:36.199Z,35.42
2023-04-27T10:40:28.098Z,35.40
2023-04-27T10:41:27.130Z,35.31
2023-04-27T10:42:27.077Z,35.36
2023-04-27T10:43:27.083Z,35.28
2023-04-27T10:44:27.416Z,35.29
2023-04-27T10:45:29.256Z,35.25
2023-04-27T10:46:27.188Z,35.20
2023-04-27T10:47:27.164Z,35.20
2023-04-27T10:48:27.148Z,35.16
2023-04-27T10:49:27.140Z,35.17
2023-04-27T10:50:27.125Z,35.19
2023-04-27T10:51:27.147Z,35.10
2023-04-27T10:52:27.110Z,35.09
2023-04-27T10:53:27.123Z,35.09
2023-04-27T10:54:27.105Z,35.03
2023-04-27T10:55:27.098Z,34.99
2023-04-27T10:56:27.085Z,35.00
2023-04-27T10:57:27.088Z,34.93
2023-04-27T10:58:37.718Z,34.95
2023-04-27T10:59:28.059Z,34.87
2023-04-27T11:00:27.078Z,34.85
2023-04-27T11:01:27.157Z,34.87
2023-04-27T11:02:27.189Z,34.89
2023-04-27T11:03:27.160Z,34.80
2023-04-27T11:04:27.077Z,34.83
2023-04-27T11:05:27.033Z,34.77
2023-04-27T11:06:26.993Z,34.77
2023-04-27T11:07:27.030Z,34.76
2023-04-27T11:08:26.982Z,34.76
2023-04-27T11:09:27.075Z,34.75
2023-04-27T11:10:27.161Z,34.77
2023-04-27T11:11:27.186Z,34.77
2023-04-27T11:12:27.197Z,34.69
2023-04-27T11:13:27.242Z,34.66
2023-04-27T11:14:27.302Z,34.65
2023-04-27T11:15:27.353Z,34.57
2023-04-27T11:16:27.368Z,34.58
2023-04-27T11:17:27.449Z,34.56
2023-04-27T11:18:27.476Z,34.56
2023-04-27T11:19:27.501Z,34.52
2023-04-27T11:20:27.638Z,34.52
2023-04-27T11:21:27.629Z,34.52
2023-04-27T11:22:27.691Z,34.56
2023-04-27T11:23:27.754Z,34.48
2023-04-27T11:24:27.789Z,34.49
2023-04-27T11:25:27.824Z,34.59
2023-04-27T11:26:27.867Z,34.48
2023-04-27T11:27:27.930Z,34.44
2023-04-27T11:28:28.025Z,34.48
2023-04-27T11:29:28.467Z,34.49
2023-04-27T11:30:28.091Z,34.45
2023-04-27T11:31:28.234Z,34.44
2023-04-27T11:32:28.212Z,34.44
2023-04-27T11:33:28.247Z,34.46
2023-04-27T11:34:28.434Z,34.42
2023-04-27T11:35:28.309Z,34.44
2023-04-27T11:36:28.361Z,34.36
2023-04-27T11:37:28.417Z,34.38
2023-04-27T11:38:28.441Z,34.40
2023-04-27T11:39:28.857Z,34.37
2023-04-27T11:40:28.545Z,34.33
2023-04-27T11:41:28.592Z,34.38
2023-04-27T11:42:28.808Z,34.33
2023-04-27T11:43:28.745Z,34.36
2023-04-27T11:44:28.787Z,34.36
2023-04-27T11:45:28.775Z,34.34
2023-04-27T11:46:28.836Z,34.29
2023-04-27T11:47:28.918Z,34.32
2023-04-27T11:48:28.886Z,34.29
2023-04-27T11:49:28.946Z,34.29
2023-04-27T11:50:28.963Z,34.27
2023-04-27T11:51:28.976Z,34.22
2023-04-27T11:52:29.081Z,34.20
2023-04-27T11:53:29.126Z,34.20
2023-04-27T11:54:30.008Z,34.22
2023-04-27T11:55:29.157Z,34.18
2023-04-27T11:56:29.200Z,34.16
2023-04-27T11:57:29.202Z,34.13
2023-04-27T11:58:29.256Z,34.13
2023-04-27T11:59:29.292Z,34.07
2023-04-27T12:00:29.302Z,34.07
2023-04-27T12:01:37.770Z,34.07
2023-04-27T12:02:30.468Z,34.06
2023-04-27T12:03:29.526Z,34.05
2023-04-27T12:04:29.500Z,34.01
2023-04-27T12:05:29.550Z,33.98
2023-04-27T12:06:33.297Z,33.99
2023-04-27T12:07:29.312Z,33.95
2023-04-27T12:08:29.319Z,33.92
2023-04-27T12:09:29.305Z,33.88
2023-04-27T12:10:29.311Z,33.87
2023-04-27T12:11:29.262Z,33.83
2023-04-27T12:12:29.288Z,33.78
2023-04-27T12:13:29.285Z,33.78
2023-04-27T12:14:29.322Z,33.77
2023-04-27T12:15:29.254Z,33.77
2023-04-27T12:16:29.304Z,33.69
2023-04-27T12:17:29.275Z,33.70
2023-04-27T12:18:29.246Z,33.67
2023-04-27T12:19:29.274Z,33.65
2023-04-27T12:20:29.224Z,33.67
2023-04-27T12:21:29.215Z,33.61
2023-04-27T12:22:29.235Z,33.61
2023-04-27T12:23:29.222Z,33.70
2023-04-27T12:24:29.216Z,33.60
2023-04-27T12:25:29.297Z,33.59
2023-04-27T12:26:29.345Z,33.57
2023-04-27T12:27:29.402Z,33.53
2023-04-27T12:28:29.471Z,33.56
2023-04-27T12:29:29.539Z,33.55
2023-04-27T12:30:29.564Z,33.60
2023-04-27T12:31:29.705Z,33.48
2023-04-27T12:32:29.698Z,33.54
2023-04-27T12:33:29.760Z,33.45
2023-04-27T12:34:29.830Z,33.41
2023-04-27T12:35:29.881Z,33.43
2023-04-27T12:36:29.918Z,33.43
2023-04-27T12:37:30.005Z,33.42
2023-04-27T12:38:30.036Z,33.32
2023-04-27T12:39:30.130Z,33.33
2023-04-27T12:40:30.160Z,33.35
2023-04-27T12:41:30.216Z,33.29
2023-04-27T12:42:30.262Z,33.28
2023-04-27T12:43:30.362Z,33.26
2023-04-27T12:44:30.382Z,33.20
2023-04-27T12:45:30.454Z,33.21
2023-04-27T12:46:30.587Z,33.09
2023-04-27T12:48:30.620Z,33.06
2023-04-27T12:49:30.562Z,32.98
2023-04-27T12:50:30.582Z,33.01
2023-04-27T12:51:30.528Z,32.95
2023-04-27T12:52:30.549Z,32.91
2023-04-27T12:53:30.531Z,32.86
2023-04-27T12:54:30.514Z,32.86
2023-04-27T12:55:34.140Z,32.79